sensor_id;sensor_type;location;lat;lon;timestamp;P1;durP1;ratioP1;P2;durP2;ratioP2
27225;SDS011;14732;51.074;3.788;2023-11-22T00:00:09;32.85;;;16.83;;
27225;SDS011;14732;51.074;3.788;2023-11-22T00:02:36;29.15;;;16.38;;
27225;SDS011;14732;51.074;3.788;2023-11-22T00:05:02;27.70;;;15.90;;
27225;SDS011;14732;51.074;3.788;2023-11-22T00:07:30;28.20;;;14.63;;
27225;SDS011;14732;51.074;3.788;2023-11-22T00:09:58;27.23;;;15.48;;
27225;SDS011;14732;51.074;3.788;2023-11-22T00:12:26;34.05;;;15.82;;
27225;SDS011;14732;51.074;3.788;2023-11-22T00:14:53;24.23;;;14.65;;
27225;SDS011;14732;51.074;3.788;2023-11-22T00:17:18;29.15;;;15.48;;
27225;SDS011;14732;51.074;3.788;2023-11-22T00:19:44;26.90;;;15.15;;
27225;SDS011;14732;51.074;3.788;2023-11-22T00:22:10;33.70;;;16.42;;
27225;SDS011;14732;51.074;3.788;2023-11-22T00:24:39;31.10;;;15.77;;
27225;SDS011;14732;51.074;3.788;2023-11-22T00:27:06;36.10;;;15.85;;
27225;SDS011;14732;51.074;3.788;2023-11-22T00:29:32;35.47;;;16.23;;
27225;SDS011;14732;51.074;3.788;2023-11-22T00:31:59;35.15;;;16.92;;
27225;SDS011;14732;51.074;3.788;2023-11-22T00:34:25;30.70;;;15.80;;
27225;SDS011;14732;51.074;3.788;2023-11-22T00:36:51;38.42;;;16.98;;
27225;SDS011;14732;51.074;3.788;2023-11-22T00:39:17;38.35;;;16.77;;
27225;SDS011;14732;51.074;3.788;2023-11-22T00:41:43;32.45;;;16.27;;
27225;SDS011;14732;51.074;3.788;2023-11-22T00:44:10;33.92;;;16.40;;
27225;SDS011;14732;51.074;3.788;2023-11-22T00:46:36;32.63;;;16.30;;
27225;SDS011;14732;51.074;3.788;2023-11-22T00:49:04;36.10;;;16.80;;
27225;SDS011;14732;51.074;3.788;2023-11-22T00:51:33;38.45;;;17.55;;
27225;SDS011;14732;51.074;3.788;2023-11-22T00:53:59;31.13;;;15.83;;
27225;SDS011;14732;51.074;3.788;2023-11-22T00:56:25;27.35;;;14.65;;
27225;SDS011;14732;51.074;3.788;2023-11-22T00:58:51;32.33;;;15.63;;
27225;SDS011;14732;51.074;3.788;2023-11-22T01:01:18;30.30;;;15.02;;
27225;SDS011;14732;51.074;3.788;2023-11-22T01:03:46;33.63;;;15.97;;
27225;SDS011;14732;51.074;3.788;2023-11-22T01:06:12;37.78;;;17.10;;
27225;SDS011;14732;51.074;3.788;2023-11-22T01:08:38;33.67;;;15.30;;
27225;SDS011;14732;51.074;3.788;2023-11-22T01:11:04;31.10;;;14.88;;
27225;SDS011;14732;51.074;3.788;2023-11-22T01:13:31;28.92;;;15.45;;
27225;SDS011;14732;51.074;3.788;2023-11-22T01:15:57;33.85;;;15.88;;
27225;SDS011;14732;51.074;3.788;2023-11-22T01:18:24;26.95;;;15.25;;
27225;SDS011;14732;51.074;3.788;2023-11-22T01:20:49;31.77;;;15.55;;
27225;SDS011;14732;51.074;3.788;2023-11-22T01:23:15;33.38;;;14.70;;
27225;SDS011;14732;51.074;3.788;2023-11-22T01:25:41;36.38;;;16.95;;
27225;SDS011;14732;51.074;3.788;2023-11-22T01:28:07;31.83;;;16.17;;
27225;SDS011;14732;51.074;3.788;2023-11-22T01:30:32;27.55;;;14.38;;
27225;SDS011;14732;51.074;3.788;2023-11-22T01:32:58;33.83;;;15.63;;
27225;SDS011;14732;51.074;3.788;2023-11-22T01:35:24;32.50;;;15.98;;
27225;SDS011;14732;51.074;3.788;2023-11-22T01:37:49;39.30;;;15.95;;
27225;SDS011;14732;51.074;3.788;2023-11-22T01:40:15;34.97;;;16.83;;
27225;SDS011;14732;51.074;3.788;2023-11-22T01:42:41;33.45;;;16.08;;
27225;SDS011;14732;51.074;3.788;2023-11-22T01:45:07;37.08;;;16.98;;
27225;SDS011;14732;51.074;3.788;2023-11-22T01:47:35;37.75;;;17.02;;
27225;SDS011;14732;51.074;3.788;2023-11-22T01:50:02;39.83;;;18.17;;
27225;SDS011;14732;51.074;3.788;2023-11-22T01:52:30;44.72;;;18.15;;
27225;SDS011;14732;51.074;3.788;2023-11-22T01:54:55;40.45;;;18.10;;
27225;SDS011;14732;51.074;3.788;2023-11-22T01:57:21;37.75;;;17.25;;
27225;SDS011;14732;51.074;3.788;2023-11-22T01:59:47;36.92;;;18.15;;
27225;SDS011;14732;51.074;3.788;2023-11-22T02:02:13;37.88;;;17.52;;
27225;SDS011;14732;51.074;3.788;2023-11-22T02:04:39;34.97;;;16.92;;
27225;SDS011;14732;51.074;3.788;2023-11-22T02:07:04;35.28;;;16.52;;
27225;SDS011;14732;51.074;3.788;2023-11-22T02:09:30;39.17;;;16.65;;
27225;SDS011;14732;51.074;3.788;2023-11-22T02:11:56;35.78;;;16.98;;
27225;SDS011;14732;51.074;3.788;2023-11-22T02:14:22;40.17;;;17.85;;
27225;SDS011;14732;51.074;3.788;2023-11-22T02:16:48;37.20;;;16.90;;
27225;SDS011;14732;51.074;3.788;2023-11-22T02:19:15;33.10;;;15.88;;
27225;SDS011;14732;51.074;3.788;2023-11-22T02:21:42;34.85;;;17.40;;
27225;SDS011;14732;51.074;3.788;2023-11-22T02:24:09;36.20;;;16.60;;
27225;SDS011;14732;51.074;3.788;2023-11-22T02:26:35;36.85;;;17.45;;
27225;SDS011;14732;51.074;3.788;2023-11-22T02:29:01;37.63;;;17.10;;
27225;SDS011;14732;51.074;3.788;2023-11-22T02:31:29;42.90;;;18.58;;
27225;SDS011;14732;51.074;3.788;2023-11-22T02:33:55;35.28;;;16.50;;
27225;SDS011;14732;51.074;3.788;2023-11-22T02:36:21;36.88;;;16.40;;
27225;SDS011;14732;51.074;3.788;2023-11-22T02:38:47;36.65;;;16.13;;
27225;SDS011;14732;51.074;3.788;2023-11-22T02:41:13;48.83;;;17.23;;
27225;SDS011;14732;51.074;3.788;2023-11-22T02:43:39;44.08;;;18.58;;
27225;SDS011;14732;51.074;3.788;2023-11-22T02:46:06;39.83;;;17.83;;
27225;SDS011;14732;51.074;3.788;2023-11-22T02:48:33;37.65;;;16.40;;
27225;SDS011;14732;51.074;3.788;2023-11-22T02:50:59;34.75;;;15.45;;
27225;SDS011;14732;51.074;3.788;2023-11-22T02:53:24;37.30;;;17.52;;
27225;SDS011;14732;51.074;3.788;2023-11-22T02:55:52;43.10;;;18.75;;
27225;SDS011;14732;51.074;3.788;2023-11-22T02:58:20;34.45;;;15.98;;
27225;SDS011;14732;51.074;3.788;2023-11-22T03:00:46;33.05;;;15.75;;
27225;SDS011;14732;51.074;3.788;2023-11-22T03:03:12;36.92;;;16.40;;
27225;SDS011;14732;51.074;3.788;2023-11-22T03:05:38;37.22;;;16.77;;
27225;SDS011;14732;51.074;3.788;2023-11-22T03:08:05;35.97;;;16.23;;
27225;SDS011;14732;51.074;3.788;2023-11-22T03:10:32;33.75;;;16.60;;
27225;SDS011;14732;51.074;3.788;2023-11-22T03:12:58;33.55;;;15.98;;
27225;SDS011;14732;51.074;3.788;2023-11-22T03:15:24;34.38;;;16.45;;
27225;SDS011;14732;51.074;3.788;2023-11-22T03:17:49;43.35;;;17.13;;
27225;SDS011;14732;51.074;3.788;2023-11-22T03:20:15;39.10;;;16.17;;
27225;SDS011;14732;51.074;3.788;2023-11-22T03:22:41;34.08;;;15.90;;
27225;SDS011;14732;51.074;3.788;2023-11-22T03:25:09;38.58;;;17.15;;
27225;SDS011;14732;51.074;3.788;2023-11-22T03:27:36;37.83;;;16.33;;
27225;SDS011;14732;51.074;3.788;2023-11-22T03:30:02;38.50;;;17.80;;
27225;SDS011;14732;51.074;3.788;2023-11-22T03:32:28;42.45;;;17.95;;
27225;SDS011;14732;51.074;3.788;2023-11-22T03:34:54;38.92;;;16.90;;
27225;SDS011;14732;51.074;3.788;2023-11-22T03:37:21;32.80;;;15.38;;
27225;SDS011;14732;51.074;3.788;2023-11-22T03:39:47;34.50;;;14.27;;
27225;SDS011;14732;51.074;3.788;2023-11-22T03:42:15;32.80;;;15.18;;
27225;SDS011;14732;51.074;3.788;2023-11-22T03:44:41;40.55;;;17.10;;
27225;SDS011;14732;51.074;3.788;2023-11-22T03:47:07;31.90;;;15.60;;
27225;SDS011;14732;51.074;3.788;2023-11-22T03:49:33;38.90;;;16.88;;
27225;SDS011;14732;51.074;3.788;2023-11-22T03:51:58;37.28;;;17.17;;
27225;SDS011;14732;51.074;3.788;2023-11-22T03:54:24;36.00;;;17.10;;
27225;SDS011;14732;51.074;3.788;2023-11-22T03:56:50;39.25;;;16.38;;
27225;SDS011;14732;51.074;3.788;2023-11-22T03:59:15;33.50;;;15.10;;
27225;SDS011;14732;51.074;3.788;2023-11-22T04:01:41;31.92;;;15.45;;
27225;SDS011;14732;51.074;3.788;2023-11-22T04:04:07;38.35;;;15.80;;
27225;SDS011;14732;51.074;3.788;2023-11-22T04:06:34;34.60;;;15.68;;
27225;SDS011;14732;51.074;3.788;2023-11-22T04:09:00;36.10;;;15.63;;
27225;SDS011;14732;51.074;3.788;2023-11-22T04:11:27;33.35;;;14.60;;
27225;SDS011;14732;51.074;3.788;2023-11-22T04:13:54;33.88;;;16.20;;
27225;SDS011;14732;51.074;3.788;2023-11-22T04:16:20;40.10;;;16.45;;
27225;SDS011;14732;51.074;3.788;2023-11-22T04:18:46;38.33;;;17.00;;
27225;SDS011;14732;51.074;3.788;2023-11-22T04:21:12;34.00;;;15.38;;
27225;SDS011;14732;51.074;3.788;2023-11-22T04:23:38;37.03;;;15.50;;
27225;SDS011;14732;51.074;3.788;2023-11-22T04:26:03;35.05;;;15.55;;
27225;SDS011;14732;51.074;3.788;2023-11-22T04:28:32;29.80;;;15.25;;
27225;SDS011;14732;51.074;3.788;2023-11-22T04:30:58;44.40;;;18.17;;
27225;SDS011;14732;51.074;3.788;2023-11-22T04:33:24;33.75;;;15.57;;
27225;SDS011;14732;51.074;3.788;2023-11-22T04:35:53;37.93;;;16.80;;
27225;SDS011;14732;51.074;3.788;2023-11-22T04:38:18;36.70;;;15.75;;
27225;SDS011;14732;51.074;3.788;2023-11-22T04:40:44;32.33;;;15.15;;
27225;SDS011;14732;51.074;3.788;2023-11-22T04:43:10;36.03;;;15.60;;
27225;SDS011;14732;51.074;3.788;2023-11-22T04:45:36;40.55;;;16.42;;
27225;SDS011;14732;51.074;3.788;2023-11-22T04:48:02;39.90;;;17.10;;
27225;SDS011;14732;51.074;3.788;2023-11-22T04:50:29;38.03;;;15.85;;
27225;SDS011;14732;51.074;3.788;2023-11-22T04:52:54;35.42;;;16.25;;
27225;SDS011;14732;51.074;3.788;2023-11-22T04:55:20;35.03;;;15.90;;
27225;SDS011;14732;51.074;3.788;2023-11-22T04:57:48;31.00;;;14.65;;
27225;SDS011;14732;51.074;3.788;2023-11-22T05:00:14;34.03;;;16.30;;
27225;SDS011;14732;51.074;3.788;2023-11-22T05:02:39;33.75;;;16.30;;
27225;SDS011;14732;51.074;3.788;2023-11-22T05:05:06;39.38;;;18.30;;
27225;SDS011;14732;51.074;3.788;2023-11-22T05:07:32;43.55;;;18.52;;
27225;SDS011;14732;51.074;3.788;2023-11-22T05:09:57;43.15;;;17.63;;
27225;SDS011;14732;51.074;3.788;2023-11-22T05:12:23;42.10;;;16.80;;
27225;SDS011;14732;51.074;3.788;2023-11-22T05:14:49;43.17;;;16.95;;
27225;SDS011;14732;51.074;3.788;2023-11-22T05:17:15;41.25;;;18.35;;
27225;SDS011;14732;51.074;3.788;2023-11-22T05:19:41;43.00;;;17.67;;
27225;SDS011;14732;51.074;3.788;2023-11-22T05:22:06;40.85;;;17.75;;
27225;SDS011;14732;51.074;3.788;2023-11-22T05:24:32;53.42;;;21.67;;
27225;SDS011;14732;51.074;3.788;2023-11-22T05:27:00;45.63;;;19.75;;
27225;SDS011;14732;51.074;3.788;2023-11-22T05:29:25;40.78;;;17.52;;
27225;SDS011;14732;51.074;3.788;2023-11-22T05:31:51;41.22;;;16.77;;
27225;SDS011;14732;51.074;3.788;2023-11-22T05:34:17;41.03;;;18.75;;
27225;SDS011;14732;51.074;3.788;2023-11-22T05:36:43;40.90;;;17.33;;
27225;SDS011;14732;51.074;3.788;2023-11-22T05:39:09;48.78;;;18.70;;
27225;SDS011;14732;51.074;3.788;2023-11-22T05:41:34;45.55;;;18.33;;
27225;SDS011;14732;51.074;3.788;2023-11-22T05:44:01;45.20;;;19.40;;
27225;SDS011;14732;51.074;3.788;2023-11-22T05:46:28;49.75;;;19.85;;
27225;SDS011;14732;51.074;3.788;2023-11-22T05:48:54;48.47;;;20.52;;
27225;SDS011;14732;51.074;3.788;2023-11-22T05:51:20;49.92;;;20.92;;
27225;SDS011;14732;51.074;3.788;2023-11-22T05:53:46;57.40;;;20.98;;
27225;SDS011;14732;51.074;3.788;2023-11-22T05:56:12;52.15;;;21.45;;
27225;SDS011;14732;51.074;3.788;2023-11-22T05:58:38;50.88;;;20.45;;
27225;SDS011;14732;51.074;3.788;2023-11-22T06:01:07;54.40;;;23.63;;
27225;SDS011;14732;51.074;3.788;2023-11-22T06:03:34;53.80;;;21.23;;
27225;SDS011;14732;51.074;3.788;2023-11-22T06:06:00;49.33;;;20.30;;
27225;SDS011;14732;51.074;3.788;2023-11-22T06:08:26;43.65;;;19.30;;
27225;SDS011;14732;51.074;3.788;2023-11-22T06:10:51;49.35;;;20.60;;
27225;SDS011;14732;51.074;3.788;2023-11-22T06:13:18;55.03;;;21.95;;
27225;SDS011;14732;51.074;3.788;2023-11-22T06:15:44;49.05;;;20.70;;
27225;SDS011;14732;51.074;3.788;2023-11-22T06:18:10;46.22;;;20.73;;
27225;SDS011;14732;51.074;3.788;2023-11-22T06:20:39;48.65;;;21.67;;
27225;SDS011;14732;51.074;3.788;2023-11-22T06:23:04;59.05;;;21.45;;
27225;SDS011;14732;51.074;3.788;2023-11-22T06:25:30;50.35;;;21.20;;
27225;SDS011;14732;51.074;3.788;2023-11-22T06:27:57;58.00;;;22.67;;
27225;SDS011;14732;51.074;3.788;2023-11-22T06:30:22;51.47;;;21.10;;
27225;SDS011;14732;51.074;3.788;2023-11-22T06:32:50;52.00;;;23.27;;
27225;SDS011;14732;51.074;3.788;2023-11-22T06:35:16;58.75;;;22.85;;
27225;SDS011;14732;51.074;3.788;2023-11-22T06:37:42;53.20;;;21.77;;
27225;SDS011;14732;51.074;3.788;2023-11-22T06:40:09;60.78;;;23.70;;
27225;SDS011;14732;51.074;3.788;2023-11-22T06:42:42;61.05;;;22.90;;
27225;SDS011;14732;51.074;3.788;2023-11-22T06:45:08;64.25;;;24.35;;
27225;SDS011;14732;51.074;3.788;2023-11-22T06:47:38;50.33;;;21.83;;
27225;SDS011;14732;51.074;3.788;2023-11-22T06:50:07;50.92;;;22.17;;
27225;SDS011;14732;51.074;3.788;2023-11-22T06:52:40;54.95;;;23.75;;
27225;SDS011;14732;51.074;3.788;2023-11-22T06:55:06;53.13;;;22.80;;
27225;SDS011;14732;51.074;3.788;2023-11-22T06:57:34;54.97;;;23.13;;
27225;SDS011;14732;51.074;3.788;2023-11-22T07:00:00;58.38;;;23.08;;
27225;SDS011;14732;51.074;3.788;2023-11-22T07:02:29;53.45;;;22.20;;
27225;SDS011;14732;51.074;3.788;2023-11-22T07:04:58;57.45;;;22.75;;
27225;SDS011;14732;51.074;3.788;2023-11-22T07:07:26;50.42;;;20.52;;
27225;SDS011;14732;51.074;3.788;2023-11-22T07:09:52;48.28;;;20.10;;
27225;SDS011;14732;51.074;3.788;2023-11-22T07:12:18;49.83;;;20.65;;
27225;SDS011;14732;51.074;3.788;2023-11-22T07:14:47;44.00;;;19.85;;
27225;SDS011;14732;51.074;3.788;2023-11-22T07:17:14;52.97;;;20.80;;
27225;SDS011;14732;51.074;3.788;2023-11-22T07:19:40;47.92;;;21.25;;
27225;SDS011;14732;51.074;3.788;2023-11-22T07:22:11;49.42;;;20.58;;
27225;SDS011;14732;51.074;3.788;2023-11-22T07:24:44;49.78;;;21.20;;
27225;SDS011;14732;51.074;3.788;2023-11-22T07:27:15;46.85;;;20.05;;
27225;SDS011;14732;51.074;3.788;2023-11-22T07:29:41;46.83;;;19.48;;
27225;SDS011;14732;51.074;3.788;2023-11-22T07:32:08;46.78;;;19.77;;
27225;SDS011;14732;51.074;3.788;2023-11-22T07:34:34;50.08;;;21.48;;
27225;SDS011;14732;51.074;3.788;2023-11-22T07:37:00;45.70;;;20.55;;
27225;SDS011;14732;51.074;3.788;2023-11-22T07:39:27;49.15;;;20.73;;
27225;SDS011;14732;51.074;3.788;2023-11-22T07:41:53;51.95;;;20.88;;
27225;SDS011;14732;51.074;3.788;2023-11-22T07:44:20;41.03;;;19.70;;
27225;SDS011;14732;51.074;3.788;2023-11-22T07:46:46;50.60;;;21.33;;
27225;SDS011;14732;51.074;3.788;2023-11-22T07:49:12;55.42;;;22.92;;
27225;SDS011;14732;51.074;3.788;2023-11-22T07:51:39;60.65;;;23.88;;
27225;SDS011;14732;51.074;3.788;2023-11-22T07:54:06;47.78;;;22.10;;
27225;SDS011;14732;51.074;3.788;2023-11-22T07:56:32;50.20;;;22.60;;
27225;SDS011;14732;51.074;3.788;2023-11-22T07:59:01;49.33;;;21.23;;
27225;SDS011;14732;51.074;3.788;2023-11-22T08:01:26;44.70;;;21.05;;
27225;SDS011;14732;51.074;3.788;2023-11-22T08:03:54;47.95;;;21.08;;
27225;SDS011;14732;51.074;3.788;2023-11-22T08:06:21;53.90;;;22.60;;
27225;SDS011;14732;51.074;3.788;2023-11-22T08:08:47;49.33;;;21.63;;
27225;SDS011;14732;51.074;3.788;2023-11-22T08:11:13;45.05;;;21.20;;
27225;SDS011;14732;51.074;3.788;2023-11-22T08:13:45;49.67;;;20.95;;
27225;SDS011;14732;51.074;3.788;2023-11-22T08:16:12;48.60;;;22.20;;
27225;SDS011;14732;51.074;3.788;2023-11-22T08:18:38;46.03;;;20.90;;
27225;SDS011;14732;51.074;3.788;2023-11-22T08:21:05;48.67;;;21.63;;
27225;SDS011;14732;51.074;3.788;2023-11-22T08:23:31;55.60;;;23.50;;
27225;SDS011;14732;51.074;3.788;2023-11-22T08:26:00;51.58;;;23.52;;
27225;SDS011;14732;51.074;3.788;2023-11-22T08:28:26;44.90;;;21.80;;
27225;SDS011;14732;51.074;3.788;2023-11-22T08:30:52;48.70;;;23.60;;
27225;SDS011;14732;51.074;3.788;2023-11-22T08:33:18;54.15;;;23.88;;
27225;SDS011;14732;51.074;3.788;2023-11-22T08:35:44;52.85;;;25.05;;
27225;SDS011;14732;51.074;3.788;2023-11-22T08:38:15;53.97;;;25.35;;
27225;SDS011;14732;51.074;3.788;2023-11-22T08:40:42;51.50;;;24.92;;
27225;SDS011;14732;51.074;3.788;2023-11-22T08:43:07;48.13;;;22.30;;
27225;SDS011;14732;51.074;3.788;2023-11-22T08:45:33;44.85;;;21.83;;
27225;SDS011;14732;51.074;3.788;2023-11-22T08:47:59;46.55;;;21.40;;
27225;SDS011;14732;51.074;3.788;2023-11-22T08:50:25;41.97;;;21.23;;
27225;SDS011;14732;51.074;3.788;2023-11-22T08:52:51;47.20;;;21.52;;
27225;SDS011;14732;51.074;3.788;2023-11-22T08:55:18;47.15;;;22.77;;
27225;SDS011;14732;51.074;3.788;2023-11-22T08:57:47;48.75;;;22.25;;
27225;SDS011;14732;51.074;3.788;2023-11-22T09:00:13;46.22;;;21.67;;
27225;SDS011;14732;51.074;3.788;2023-11-22T09:02:39;39.25;;;21.52;;
27225;SDS011;14732;51.074;3.788;2023-11-22T09:05:06;38.13;;;21.02;;
27225;SDS011;14732;51.074;3.788;2023-11-22T09:07:35;37.78;;;21.63;;
27225;SDS011;14732;51.074;3.788;2023-11-22T09:10:04;37.55;;;21.38;;
27225;SDS011;14732;51.074;3.788;2023-11-22T09:12:37;32.65;;;20.55;;
27225;SDS011;14732;51.074;3.788;2023-11-22T09:15:12;31.17;;;20.33;;
27225;SDS011;14732;51.074;3.788;2023-11-22T09:17:41;34.88;;;19.50;;
27225;SDS011;14732;51.074;3.788;2023-11-22T09:20:11;31.73;;;18.65;;
27225;SDS011;14732;51.074;3.788;2023-11-22T09:22:45;31.02;;;18.70;;
27225;SDS011;14732;51.074;3.788;2023-11-22T09:25:14;30.90;;;19.23;;
27225;SDS011;14732;51.074;3.788;2023-11-22T09:27:41;30.27;;;18.83;;
27225;SDS011;14732;51.074;3.788;2023-11-22T09:30:12;29.25;;;19.77;;
27225;SDS011;14732;51.074;3.788;2023-11-22T09:32:45;30.52;;;18.77;;
27225;SDS011;14732;51.074;3.788;2023-11-22T09:35:12;31.90;;;20.17;;
27225;SDS011;14732;51.074;3.788;2023-11-22T09:37:39;34.35;;;20.77;;
27225;SDS011;14732;51.074;3.788;2023-11-22T09:40:07;34.58;;;20.80;;
27225;SDS011;14732;51.074;3.788;2023-11-22T09:42:34;36.60;;;20.73;;
27225;SDS011;14732;51.074;3.788;2023-11-22T09:45:00;36.40;;;22.85;;
27225;SDS011;14732;51.074;3.788;2023-11-22T09:47:28;39.42;;;24.13;;
27225;SDS011;14732;51.074;3.788;2023-11-22T09:49:57;36.97;;;21.98;;
27225;SDS011;14732;51.074;3.788;2023-11-22T09:52:26;41.43;;;25.27;;
27225;SDS011;14732;51.074;3.788;2023-11-22T09:54:54;36.10;;;21.77;;
27225;SDS011;14732;51.074;3.788;2023-11-22T09:57:20;36.22;;;21.58;;
27225;SDS011;14732;51.074;3.788;2023-11-22T09:59:49;36.42;;;21.23;;
27225;SDS011;14732;51.074;3.788;2023-11-22T10:02:20;37.53;;;22.55;;
27225;SDS011;14732;51.074;3.788;2023-11-22T10:04:51;44.13;;;23.92;;
27225;SDS011;14732;51.074;3.788;2023-11-22T10:07:18;42.90;;;23.20;;
27225;SDS011;14732;51.074;3.788;2023-11-22T10:09:43;36.78;;;22.15;;
27225;SDS011;14732;51.074;3.788;2023-11-22T10:12:09;42.92;;;23.33;;
27225;SDS011;14732;51.074;3.788;2023-11-22T10:14:37;36.55;;;21.65;;
27225;SDS011;14732;51.074;3.788;2023-11-22T10:17:03;35.00;;;21.75;;
27225;SDS011;14732;51.074;3.788;2023-11-22T10:19:30;34.17;;;21.15;;
27225;SDS011;14732;51.074;3.788;2023-11-22T10:22:06;35.40;;;20.85;;
27225;SDS011;14732;51.074;3.788;2023-11-22T10:24:32;35.25;;;20.13;;
27225;SDS011;14732;51.074;3.788;2023-11-22T10:26:59;37.45;;;20.50;;
27225;SDS011;14732;51.074;3.788;2023-11-22T10:29:26;35.20;;;20.45;;
27225;SDS011;14732;51.074;3.788;2023-11-22T10:31:52;36.35;;;20.17;;
27225;SDS011;14732;51.074;3.788;2023-11-22T10:34:21;32.58;;;19.73;;
27225;SDS011;14732;51.074;3.788;2023-11-22T10:36:48;36.10;;;19.08;;
27225;SDS011;14732;51.074;3.788;2023-11-22T10:39:22;31.60;;;19.30;;
27225;SDS011;14732;51.074;3.788;2023-11-22T10:41:48;33.72;;;20.13;;
27225;SDS011;14732;51.074;3.788;2023-11-22T10:44:16;36.38;;;20.30;;
27225;SDS011;14732;51.074;3.788;2023-11-22T10:49:12;33.13;;;18.60;;
27225;SDS011;14732;51.074;3.788;2023-11-22T10:51:38;38.95;;;21.17;;
27225;SDS011;14732;51.074;3.788;2023-11-22T10:54:05;32.75;;;20.08;;
27225;SDS011;14732;51.074;3.788;2023-11-22T10:56:39;33.03;;;20.27;;
27225;SDS011;14732;51.074;3.788;2023-11-22T10:59:10;33.72;;;21.13;;
27225;SDS011;14732;51.074;3.788;2023-11-22T11:01:39;35.17;;;20.33;;
27225;SDS011;14732;51.074;3.788;2023-11-22T11:04:31;34.53;;;20.65;;
27225;SDS011;14732;51.074;3.788;2023-11-22T11:07:01;36.20;;;21.60;;
27225;SDS011;14732;51.074;3.788;2023-11-22T11:09:28;34.83;;;21.00;;
27225;SDS011;14732;51.074;3.788;2023-11-22T11:11:57;34.97;;;21.13;;
27225;SDS011;14732;51.074;3.788;2023-11-22T11:14:23;34.58;;;20.80;;
27225;SDS011;14732;51.074;3.788;2023-11-22T11:16:51;39.80;;;22.85;;
27225;SDS011;14732;51.074;3.788;2023-11-22T11:19:19;43.67;;;28.70;;
27225;SDS011;14732;51.074;3.788;2023-11-22T11:21:50;41.28;;;24.58;;
27225;SDS011;14732;51.074;3.788;2023-11-22T11:24:16;36.03;;;21.90;;
27225;SDS011;14732;51.074;3.788;2023-11-22T11:26:47;38.08;;;22.27;;
27225;SDS011;14732;51.074;3.788;2023-11-22T11:29:30;39.78;;;22.15;;
27225;SDS011;14732;51.074;3.788;2023-11-22T11:32:02;41.17;;;23.15;;
27225;SDS011;14732;51.074;3.788;2023-11-22T11:34:28;42.67;;;24.52;;
27225;SDS011;14732;51.074;3.788;2023-11-22T11:36:54;44.50;;;23.80;;
27225;SDS011;14732;51.074;3.788;2023-11-22T11:39:24;42.15;;;24.27;;
27225;SDS011;14732;51.074;3.788;2023-11-22T11:42:11;45.65;;;25.33;;
27225;SDS011;14732;51.074;3.788;2023-11-22T11:44:50;46.03;;;24.50;;
27225;SDS011;14732;51.074;3.788;2023-11-22T11:47:36;42.22;;;24.02;;
27225;SDS011;14732;51.074;3.788;2023-11-22T11:50:02;48.15;;;24.42;;
27225;SDS011;14732;51.074;3.788;2023-11-22T11:52:28;42.63;;;22.88;;
27225;SDS011;14732;51.074;3.788;2023-11-22T11:54:56;42.00;;;22.98;;
27225;SDS011;14732;51.074;3.788;2023-11-22T11:57:23;38.90;;;20.98;;
27225;SDS011;14732;51.074;3.788;2023-11-22T11:59:48;40.17;;;20.98;;
27225;SDS011;14732;51.074;3.788;2023-11-22T12:02:15;41.58;;;22.17;;
27225;SDS011;14732;51.074;3.788;2023-11-22T12:04:41;41.60;;;22.40;;
27225;SDS011;14732;51.074;3.788;2023-11-22T12:07:10;38.00;;;20.20;;
27225;SDS011;14732;51.074;3.788;2023-11-22T12:09:37;38.92;;;19.83;;
27225;SDS011;14732;51.074;3.788;2023-11-22T12:12:02;34.97;;;19.73;;
27225;SDS011;14732;51.074;3.788;2023-11-22T12:14:28;32.97;;;17.90;;
27225;SDS011;14732;51.074;3.788;2023-11-22T12:16:54;31.55;;;17.40;;
27225;SDS011;14732;51.074;3.788;2023-11-22T12:19:20;33.85;;;18.33;;
27225;SDS011;14732;51.074;3.788;2023-11-22T12:21:51;37.03;;;18.52;;
27225;SDS011;14732;51.074;3.788;2023-11-22T12:24:18;35.10;;;19.33;;
27225;SDS011;14732;51.074;3.788;2023-11-22T12:26:47;37.50;;;17.70;;
27225;SDS011;14732;51.074;3.788;2023-11-22T12:29:16;36.78;;;19.48;;
27225;SDS011;14732;51.074;3.788;2023-11-22T12:34:20;38.28;;;19.13;;
27225;SDS011;14732;51.074;3.788;2023-11-22T12:36:46;35.40;;;17.63;;
27225;SDS011;14732;51.074;3.788;2023-11-22T12:39:12;31.52;;;16.67;;
27225;SDS011;14732;51.074;3.788;2023-11-22T12:41:49;31.10;;;16.88;;
27225;SDS011;14732;51.074;3.788;2023-11-22T12:44:18;32.40;;;16.80;;
27225;SDS011;14732;51.074;3.788;2023-11-22T12:46:45;34.55;;;17.83;;
27225;SDS011;14732;51.074;3.788;2023-11-22T12:51:51;32.25;;;16.95;;
27225;SDS011;14732;51.074;3.788;2023-11-22T12:54:18;30.45;;;16.73;;
27225;SDS011;14732;51.074;3.788;2023-11-22T12:56:47;36.97;;;19.45;;
27225;SDS011;14732;51.074;3.788;2023-11-22T12:59:14;39.15;;;19.77;;
27225;SDS011;14732;51.074;3.788;2023-11-22T13:01:40;32.13;;;18.00;;
27225;SDS011;14732;51.074;3.788;2023-11-22T13:04:06;37.30;;;18.50;;
27225;SDS011;14732;51.074;3.788;2023-11-22T13:06:32;39.08;;;19.08;;
27225;SDS011;14732;51.074;3.788;2023-11-22T13:08:57;36.42;;;19.17;;
27225;SDS011;14732;51.074;3.788;2023-11-22T13:11:23;35.63;;;19.77;;
27225;SDS011;14732;51.074;3.788;2023-11-22T13:13:49;32.15;;;18.20;;
27225;SDS011;14732;51.074;3.788;2023-11-22T13:16:15;34.47;;;18.75;;
27225;SDS011;14732;51.074;3.788;2023-11-22T13:18:43;34.22;;;19.88;;
27225;SDS011;14732;51.074;3.788;2023-11-22T13:21:09;34.65;;;18.58;;
27225;SDS011;14732;51.074;3.788;2023-11-22T13:23:35;32.17;;;18.25;;
27225;SDS011;14732;51.074;3.788;2023-11-22T13:26:01;33.33;;;18.25;;
27225;SDS011;14732;51.074;3.788;2023-11-22T13:28:27;35.47;;;19.65;;
27225;SDS011;14732;51.074;3.788;2023-11-22T13:30:53;37.42;;;19.40;;
27225;SDS011;14732;51.074;3.788;2023-11-22T13:33:19;37.45;;;20.15;;
27225;SDS011;14732;51.074;3.788;2023-11-22T13:35:45;35.70;;;20.58;;
27225;SDS011;14732;51.074;3.788;2023-11-22T13:38:12;39.40;;;20.92;;
27225;SDS011;14732;51.074;3.788;2023-11-22T13:40:38;38.85;;;20.45;;
27225;SDS011;14732;51.074;3.788;2023-11-22T13:43:10;35.92;;;20.50;;
27225;SDS011;14732;51.074;3.788;2023-11-22T13:45:37;35.35;;;20.08;;
27225;SDS011;14732;51.074;3.788;2023-11-22T13:48:06;37.20;;;20.23;;
27225;SDS011;14732;51.074;3.788;2023-11-22T13:50:34;36.60;;;20.90;;
27225;SDS011;14732;51.074;3.788;2023-11-22T13:53:00;34.90;;;20.38;;
27225;SDS011;14732;51.074;3.788;2023-11-22T13:55:27;33.20;;;20.27;;
27225;SDS011;14732;51.074;3.788;2023-11-22T13:57:53;39.78;;;21.48;;
27225;SDS011;14732;51.074;3.788;2023-11-22T14:00:24;38.95;;;20.13;;
27225;SDS011;14732;51.074;3.788;2023-11-22T14:02:54;36.10;;;20.30;;
27225;SDS011;14732;51.074;3.788;2023-11-22T14:05:29;40.35;;;21.25;;
27225;SDS011;14732;51.074;3.788;2023-11-22T14:07:55;37.42;;;21.50;;
27225;SDS011;14732;51.074;3.788;2023-11-22T14:10:21;38.20;;;21.17;;
27225;SDS011;14732;51.074;3.788;2023-11-22T14:12:48;36.97;;;21.02;;
27225;SDS011;14732;51.074;3.788;2023-11-22T14:15:14;40.47;;;20.92;;
27225;SDS011;14732;51.074;3.788;2023-11-22T14:17:40;36.53;;;22.42;;
27225;SDS011;14732;51.074;3.788;2023-11-22T14:22:36;38.20;;;20.42;;
27225;SDS011;14732;51.074;3.788;2023-11-22T14:25:02;44.45;;;21.63;;
27225;SDS011;14732;51.074;3.788;2023-11-22T14:27:32;39.30;;;21.42;;
27225;SDS011;14732;51.074;3.788;2023-11-22T14:29:59;37.67;;;21.33;;